WetterOnline ( http://www.wetteronline.de )

Wetter aktuell Mora

Aktuelles Wetter: Mora (197m)

6-stündlich | Neueste Meldungen
Ortszeit Temperatur Wetter
Di, 17.07. 14:00 30.5° C wolkenlos
Di, 17.07. 8:00 22.3° C wolkenlos
Di, 17.07. 2:00 17.2° C wolkenlos
Mo, 16.07. 20:00 26.6° C wolkenlos
Mo, 16.07. 14:00 29.5° C wolkenlos
Mo, 16.07. 8:00 19.9° C wolkenlos
Mo, 16.07. 2:00 15.1° C wolkenlos
So, 15.07. 20:00 28.5° C wolkenlos
Ortszeit Temperatur Wetter
Di, 17.07. 17:20 30° C leicht bewölkt
Di, 17.07. 17:00 30.1° C fast wolkenlos
Di, 17.07. 16:50 29° C leicht bewölkt
Di, 17.07. 16:20 31° C leicht bewölkt
Di, 17.07. 16:00 30.2° C wolkig
Di, 17.07. 15:50 30° C leicht bewölkt
Di, 17.07. 15:20 30° C -
Di, 17.07. 15:00 30.3° C wolkenlos
Di, 17.07. 14:20 30° C leicht bewölkt
Di, 17.07. 14:00 30.5° C wolkenlos
Ortszeit Relative Feuchte Sichtweite
Di, 17.07. 14:00 28% 30 km
Di, 17.07. 8:00 50% 30 km
Di, 17.07. 2:00 62% >50 km
Mo, 16.07. 20:00 32% 40 km
Mo, 16.07. 14:00 21% 40 km
Mo, 16.07. 8:00 48% 40 km
Mo, 16.07. 2:00 57% >50 km
So, 15.07. 20:00 20% >50 km
Ortszeit Relative Feuchte Sichtweite
Di, 17.07. 17:20 35% >10 km
Di, 17.07. 17:00 29% 35 km
Di, 17.07. 16:50 35% >10 km
Di, 17.07. 16:20 31% >10 km
Di, 17.07. 16:00 29% 30 km
Di, 17.07. 15:50 31% >10 km
Di, 17.07. 15:20 33% >10 km
Di, 17.07. 15:00 27% 30 km
Di, 17.07. 14:20 33% >10 km
Di, 17.07. 14:00 28% 30 km
Ortszeit Niederschlagsmenge Niederschlagsart
Di, 17.07. 14:00 0.0 l/m2 in 6 Std. -
Di, 17.07. 8:00 0.0 l/m2 in 12 Std. -
Di, 17.07. 2:00 0.0 l/m2 in 6 Std. -
Mo, 16.07. 20:00 0.0 l/m2 in 12 Std. -
Mo, 16.07. 14:00 0.0 l/m2 in 6 Std. -
Mo, 16.07. 8:00 0.0 l/m2 in 12 Std. -
Mo, 16.07. 2:00 0.0 l/m2 in 1 Std. -
So, 15.07. 20:00 0.0 l/m2 in 12 Std. -
Ortszeit Niederschlagsmenge Niederschlagsart
Di, 17.07. 17:20 keine Meldung -
Di, 17.07. 17:00 0.0 l/m2 in 1 Std. -
Di, 17.07. 16:50 keine Meldung -
Di, 17.07. 16:20 keine Meldung -
Di, 17.07. 16:00 0.0 l/m2 in 1 Std. -
Di, 17.07. 15:50 keine Meldung -
Di, 17.07. 15:20 keine Meldung -
Di, 17.07. 15:00 0.0 l/m2 in 1 Std. -
Di, 17.07. 14:20 keine Meldung -
Di, 17.07. 14:00 0.0 l/m2 in 1 Std. -
Ortszeit Stärke Spitze Richtung
km/h Bft. km/h Grad Sektor
Di, 17.07. 14:00 14 3 29 100° O
Di, 17.07. 8:00 4 1 7 110° O
Di, 17.07. 2:00 4 1 7 10° N
Mo, 16.07. 20:00 0 0 11 - -
Mo, 16.07. 14:00 18 3 25 100° O
Mo, 16.07. 8:00 4 1 7 350° N
Mo, 16.07. 2:00 0 0 11 - -
So, 15.07. 20:00 7 2 14 210° SW
Ortszeit Stärke Spitze Richtung
km/h Bft. km/h Grad Sektor
Di, 17.07. 17:20 17 3 - 120° SO
Di, 17.07. 17:00 22 4 32 130° SO
Di, 17.07. 16:50 19 3 - 130° SO
Di, 17.07. 16:20 20 4 - 120° SO
Di, 17.07. 16:00 18 3 32 130° SO
Di, 17.07. 15:50 20 4 - 130° SO
Di, 17.07. 15:20 19 3 - 110° O
Di, 17.07. 15:00 18 3 29 120° SO
Di, 17.07. 14:20 17 3 - 100° O
Di, 17.07. 14:00 14 3 29 100° O
Ortszeit Untergrenze Bedeckung Gattung
total tief tief mittel hoch
Di, 17.07. 14:00 - 0/8 0/8 - - -
Di, 17.07. 8:00 - 0/8 0/8 - - -
Di, 17.07. 2:00 - 0/8 0/8 - - -
Mo, 16.07. 20:00 - 0/8 0/8 - - -
Mo, 16.07. 14:00 - 0/8 0/8 - - -
Mo, 16.07. 8:00 - 0/8 0/8 - - -
Mo, 16.07. 2:00 - 0/8 0/8 - - -
So, 15.07. 20:00 - 0/8 0/8 - - -
Ortszeit Bedeckungsgrad in Achtel und Wolkenuntergrenze
Di, 17.07. 17:20 1-2(3900m)
Di, 17.07. 17:00 1(4200m)
Di, 17.07. 16:50 1-2(3900m)
Di, 17.07. 16:20 1-2(3900m)
Di, 17.07. 16:00 6(4200m)
Di, 17.07. 15:50 1-2(3900m)
Di, 17.07. 15:20 -
Di, 17.07. 15:00 keine Wolken
Di, 17.07. 14:20 1-2(3300m)
Di, 17.07. 14:00 keine Wolken
Ortszeit Luftdruck NN (hPa) Tendenz (hPa in 3 Std.)
Di, 17.07. 14:00 1014 - 1,3
Di, 17.07. 8:00 1017 + 0,4
Di, 17.07. 2:00 1016 + 0,5
Mo, 16.07. 20:00 1013 - 0,2
Mo, 16.07. 14:00 1014 - 0,7
Mo, 16.07. 8:00 1016 + 0,3
Mo, 16.07. 2:00 1016 + 1,2
So, 15.07. 20:00 1012 + 0,3
Ortszeit Luftdruck NN (hPa) Tendenz (hPa in 3 Std.)
Di, 17.07. 17:20 1014 keine Meldung
Di, 17.07. 17:00 1013 - 1,0
Di, 17.07. 16:50 1014 keine Meldung
Di, 17.07. 16:20 1014 keine Meldung
Di, 17.07. 16:00 1013 - 1,3
Di, 17.07. 15:50 1015 keine Meldung
Di, 17.07. 15:20 1015 keine Meldung
Di, 17.07. 15:00 1014 - 1,2
Di, 17.07. 14:20 1015 keine Meldung
Di, 17.07. 14:00 1014 - 1,3
Ortszeit Schneehöhe (cm)
Di, 17.07. 14:00 -
Di, 17.07. 8:00 -
Di, 17.07. 2:00 -
Mo, 16.07. 20:00 -
Mo, 16.07. 14:00 -
Mo, 16.07. 8:00 -
Mo, 16.07. 2:00 -
So, 15.07. 20:00 -
Ortszeit Schneehöhe (cm)
Di, 17.07. 17:20 -
Di, 17.07. 17:00 -
Di, 17.07. 16:50 -
Di, 17.07. 16:20 -
Di, 17.07. 16:00 -
Di, 17.07. 15:50 -
Di, 17.07. 15:20 -
Di, 17.07. 15:00 -
Di, 17.07. 14:20 -
Di, 17.07. 14:00 -
Link zu dieser Seite / Seite empfehlen

Das Wetter in ...